sensor_id;sensor_type;location;lat;lon;timestamp;P1;durP1;ratioP1;P2;durP2;ratioP2
10641;SDS011;5369;49.586;8.646;2023-04-03T00:00:46;4.20;;;2.80;;
10641;SDS011;5369;49.586;8.646;2023-04-03T00:03:14;2.60;;;2.00;;
10641;SDS011;5369;49.586;8.646;2023-04-03T00:05:40;3.50;;;2.50;;
10641;SDS011;5369;49.586;8.646;2023-04-03T00:08:07;7.77;;;2.87;;
10641;SDS011;5369;49.586;8.646;2023-04-03T00:10:35;6.00;;;2.20;;
10641;SDS011;5369;49.586;8.646;2023-04-03T00:13:01;2.50;;;2.10;;
10641;SDS011;5369;49.586;8.646;2023-04-03T00:15:27;5.13;;;2.30;;
10641;SDS011;5369;49.586;8.646;2023-04-03T00:17:54;4.23;;;2.30;;
10641;SDS011;5369;49.586;8.646;2023-04-03T00:20:20;5.93;;;3.53;;
10641;SDS011;5369;49.586;8.646;2023-04-03T00:22:46;4.60;;;2.60;;
10641;SDS011;5369;49.586;8.646;2023-04-03T00:25:12;4.57;;;2.10;;
10641;SDS011;5369;49.586;8.646;2023-04-03T00:27:39;2.73;;;2.20;;
10641;SDS011;5369;49.586;8.646;2023-04-03T00:30:06;2.37;;;2.03;;
10641;SDS011;5369;49.586;8.646;2023-04-03T00:32:33;4.30;;;2.20;;
10641;SDS011;5369;49.586;8.646;2023-04-03T00:34:59;4.10;;;2.60;;
10641;SDS011;5369;49.586;8.646;2023-04-03T00:37:25;3.77;;;2.30;;
10641;SDS011;5369;49.586;8.646;2023-04-03T00:39:51;2.80;;;2.13;;
10641;SDS011;5369;49.586;8.646;2023-04-03T00:42:18;3.00;;;2.60;;
10641;SDS011;5369;49.586;8.646;2023-04-03T00:47:13;2.90;;;2.40;;
10641;SDS011;5369;49.586;8.646;2023-04-03T00:49:42;2.20;;;2.00;;
10641;SDS011;5369;49.586;8.646;2023-04-03T00:52:09;2.30;;;2.10;;
10641;SDS011;5369;49.586;8.646;2023-04-03T00:54:37;2.73;;;2.53;;
10641;SDS011;5369;49.586;8.646;2023-04-03T00:57:04;3.80;;;2.77;;
10641;SDS011;5369;49.586;8.646;2023-04-03T00:59:32;5.20;;;2.83;;
10641;SDS011;5369;49.586;8.646;2023-04-03T01:01:59;3.13;;;2.80;;
10641;SDS011;5369;49.586;8.646;2023-04-03T01:06:53;3.23;;;2.70;;
10641;SDS011;5369;49.586;8.646;2023-04-03T01:09:21;3.73;;;3.10;;
10641;SDS011;5369;49.586;8.646;2023-04-03T01:11:47;3.27;;;2.90;;
10641;SDS011;5369;49.586;8.646;2023-04-03T01:14:13;3.43;;;3.00;;
10641;SDS011;5369;49.586;8.646;2023-04-03T01:16:40;3.50;;;3.00;;
10641;SDS011;5369;49.586;8.646;2023-04-03T01:19:07;5.30;;;3.07;;
10641;SDS011;5369;49.586;8.646;2023-04-03T01:24:53;4.53;;;3.20;;
10641;SDS011;5369;49.586;8.646;2023-04-03T01:27:13;4.67;;;3.17;;
10641;SDS011;5369;49.586;8.646;2023-04-03T01:29:39;3.43;;;2.90;;
10641;SDS011;5369;49.586;8.646;2023-04-03T01:32:06;3.27;;;2.97;;
10641;SDS011;5369;49.586;8.646;2023-04-03T01:34:32;3.57;;;2.87;;
10641;SDS011;5369;49.586;8.646;2023-04-03T01:37:04;2.97;;;2.70;;
10641;SDS011;5369;49.586;8.646;2023-04-03T01:39:30;4.63;;;3.30;;
10641;SDS011;5369;49.586;8.646;2023-04-03T01:41:57;7.23;;;3.30;;
10641;SDS011;5369;49.586;8.646;2023-04-03T01:44:31;3.60;;;3.10;;
10641;SDS011;5369;49.586;8.646;2023-04-03T01:46:57;3.90;;;3.00;;
10641;SDS011;5369;49.586;8.646;2023-04-03T01:49:25;3.70;;;3.37;;
10641;SDS011;5369;49.586;8.646;2023-04-03T01:51:52;4.77;;;2.80;;
10641;SDS011;5369;49.586;8.646;2023-04-03T01:54:19;3.70;;;2.87;;
10641;SDS011;5369;49.586;8.646;2023-04-03T01:56:45;5.87;;;3.20;;
10641;SDS011;5369;49.586;8.646;2023-04-03T01:59:12;3.43;;;2.67;;
10641;SDS011;5369;49.586;8.646;2023-04-03T02:01:38;3.17;;;2.60;;
10641;SDS011;5369;49.586;8.646;2023-04-03T02:04:05;5.90;;;3.10;;
10641;SDS011;5369;49.586;8.646;2023-04-03T02:06:31;5.33;;;3.10;;
10641;SDS011;5369;49.586;8.646;2023-04-03T02:08:57;3.03;;;2.67;;
10641;SDS011;5369;49.586;8.646;2023-04-03T02:11:24;3.97;;;3.17;;
10641;SDS011;5369;49.586;8.646;2023-04-03T02:13:50;5.63;;;3.13;;
10641;SDS011;5369;49.586;8.646;2023-04-03T02:16:16;3.93;;;2.80;;
10641;SDS011;5369;49.586;8.646;2023-04-03T02:18:42;4.43;;;2.97;;
10641;SDS011;5369;49.586;8.646;2023-04-03T02:21:08;3.43;;;2.90;;
10641;SDS011;5369;49.586;8.646;2023-04-03T02:23:35;3.97;;;2.83;;
10641;SDS011;5369;49.586;8.646;2023-04-03T02:26:09;5.07;;;3.10;;
10641;SDS011;5369;49.586;8.646;2023-04-03T02:28:35;4.80;;;3.03;;
10641;SDS011;5369;49.586;8.646;2023-04-03T02:31:02;5.43;;;3.60;;
10641;SDS011;5369;49.586;8.646;2023-04-03T02:33:29;5.03;;;3.30;;
10641;SDS011;5369;49.586;8.646;2023-04-03T02:35:56;4.43;;;3.70;;
10641;SDS011;5369;49.586;8.646;2023-04-03T02:38:22;4.50;;;3.50;;
10641;SDS011;5369;49.586;8.646;2023-04-03T02:40:49;4.40;;;3.37;;
10641;SDS011;5369;49.586;8.646;2023-04-03T02:43:16;3.90;;;3.20;;
10641;SDS011;5369;49.586;8.646;2023-04-03T02:45:42;5.37;;;3.80;;
10641;SDS011;5369;49.586;8.646;2023-04-03T02:48:09;5.33;;;3.60;;
10641;SDS011;5369;49.586;8.646;2023-04-03T02:50:35;5.93;;;3.50;;
10641;SDS011;5369;49.586;8.646;2023-04-03T02:53:01;5.47;;;3.83;;
10641;SDS011;5369;49.586;8.646;2023-04-03T02:55:27;4.33;;;3.20;;
10641;SDS011;5369;49.586;8.646;2023-04-03T02:57:55;4.73;;;3.40;;
10641;SDS011;5369;49.586;8.646;2023-04-03T03:00:21;7.97;;;3.73;;
10641;SDS011;5369;49.586;8.646;2023-04-03T03:02:48;4.37;;;3.80;;
10641;SDS011;5369;49.586;8.646;2023-04-03T03:05:14;4.30;;;3.90;;
10641;SDS011;5369;49.586;8.646;2023-04-03T03:07:41;4.60;;;3.60;;
10641;SDS011;5369;49.586;8.646;2023-04-03T03:10:07;4.60;;;3.60;;
10641;SDS011;5369;49.586;8.646;2023-04-03T03:12:33;4.87;;;3.63;;
10641;SDS011;5369;49.586;8.646;2023-04-03T03:14:59;4.57;;;4.10;;
10641;SDS011;5369;49.586;8.646;2023-04-03T03:17:26;4.53;;;3.90;;
10641;SDS011;5369;49.586;8.646;2023-04-03T03:19:52;5.20;;;3.60;;
10641;SDS011;5369;49.586;8.646;2023-04-03T03:22:18;5.07;;;3.50;;
10641;SDS011;5369;49.586;8.646;2023-04-03T03:24:44;4.13;;;3.60;;
10641;SDS011;5369;49.586;8.646;2023-04-03T03:27:10;3.70;;;3.40;;
10641;SDS011;5369;49.586;8.646;2023-04-03T03:29:37;4.70;;;3.50;;
10641;SDS011;5369;49.586;8.646;2023-04-03T03:32:04;4.57;;;3.70;;
10641;SDS011;5369;49.586;8.646;2023-04-03T03:34:30;5.57;;;3.43;;
10641;SDS011;5369;49.586;8.646;2023-04-03T03:36:58;4.67;;;3.50;;
10641;SDS011;5369;49.586;8.646;2023-04-03T03:39:24;5.00;;;3.67;;
10641;SDS011;5369;49.586;8.646;2023-04-03T03:41:50;5.10;;;3.90;;
10641;SDS011;5369;49.586;8.646;2023-04-03T03:44:19;4.70;;;3.90;;
10641;SDS011;5369;49.586;8.646;2023-04-03T03:46:45;5.90;;;3.97;;
10641;SDS011;5369;49.586;8.646;2023-04-03T03:49:11;4.47;;;4.00;;
10641;SDS011;5369;49.586;8.646;2023-04-03T03:51:39;4.63;;;3.80;;
10641;SDS011;5369;49.586;8.646;2023-04-03T03:54:06;8.17;;;4.00;;
10641;SDS011;5369;49.586;8.646;2023-04-03T03:56:33;5.53;;;3.87;;
10641;SDS011;5369;49.586;8.646;2023-04-03T03:58:59;5.23;;;3.77;;
10641;SDS011;5369;49.586;8.646;2023-04-03T04:01:26;4.53;;;3.60;;
10641;SDS011;5369;49.586;8.646;2023-04-03T04:03:52;5.13;;;4.30;;
10641;SDS011;5369;49.586;8.646;2023-04-03T04:06:23;4.77;;;4.27;;
10641;SDS011;5369;49.586;8.646;2023-04-03T04:08:51;5.75;;;5.05;;
10641;SDS011;5369;49.586;8.646;2023-04-03T04:11:19;7.73;;;5.70;;
10641;SDS011;5369;49.586;8.646;2023-04-03T04:13:47;6.00;;;5.27;;
10641;SDS011;5369;49.586;8.646;2023-04-03T04:16:15;7.03;;;5.23;;
10641;SDS011;5369;49.586;8.646;2023-04-03T04:18:42;8.23;;;5.53;;
10641;SDS011;5369;49.586;8.646;2023-04-03T04:21:08;9.37;;;6.43;;
10641;SDS011;5369;49.586;8.646;2023-04-03T04:23:36;9.13;;;6.13;;
10641;SDS011;5369;49.586;8.646;2023-04-03T04:26:03;7.67;;;5.33;;
10641;SDS011;5369;49.586;8.646;2023-04-03T04:28:33;7.10;;;4.97;;
10641;SDS011;5369;49.586;8.646;2023-04-03T04:31:00;5.37;;;4.70;;
10641;SDS011;5369;49.586;8.646;2023-04-03T04:33:27;5.30;;;4.03;;
10641;SDS011;5369;49.586;8.646;2023-04-03T04:35:56;6.47;;;4.20;;
10641;SDS011;5369;49.586;8.646;2023-04-03T04:38:22;5.23;;;4.33;;
10641;SDS011;5369;49.586;8.646;2023-04-03T04:40:51;4.50;;;4.07;;
10641;SDS011;5369;49.586;8.646;2023-04-03T04:43:17;6.53;;;4.23;;
10641;SDS011;5369;49.586;8.646;2023-04-03T04:45:46;5.77;;;4.10;;
10641;SDS011;5369;49.586;8.646;2023-04-03T04:48:13;5.93;;;4.97;;
10641;SDS011;5369;49.586;8.646;2023-04-03T04:50:40;7.37;;;5.13;;
10641;SDS011;5369;49.586;8.646;2023-04-03T04:53:06;7.17;;;5.10;;
10641;SDS011;5369;49.586;8.646;2023-04-03T04:55:33;7.93;;;5.43;;
10641;SDS011;5369;49.586;8.646;2023-04-03T04:57:59;8.93;;;5.63;;
10641;SDS011;5369;49.586;8.646;2023-04-03T05:00:26;9.83;;;5.83;;
10641;SDS011;5369;49.586;8.646;2023-04-03T05:02:53;7.90;;;5.73;;
10641;SDS011;5369;49.586;8.646;2023-04-03T05:05:19;7.63;;;4.90;;
10641;SDS011;5369;49.586;8.646;2023-04-03T05:07:45;9.50;;;5.37;;
10641;SDS011;5369;49.586;8.646;2023-04-03T05:10:12;7.33;;;5.00;;
10641;SDS011;5369;49.586;8.646;2023-04-03T05:12:39;7.10;;;5.20;;
10641;SDS011;5369;49.586;8.646;2023-04-03T05:15:05;7.10;;;5.17;;
10641;SDS011;5369;49.586;8.646;2023-04-03T05:17:32;8.10;;;5.37;;
10641;SDS011;5369;49.586;8.646;2023-04-03T05:19:58;7.53;;;4.80;;
10641;SDS011;5369;49.586;8.646;2023-04-03T05:22:26;6.10;;;5.00;;
10641;SDS011;5369;49.586;8.646;2023-04-03T05:24:56;6.10;;;4.90;;
10641;SDS011;5369;49.586;8.646;2023-04-03T05:27:23;6.33;;;5.37;;
10641;SDS011;5369;49.586;8.646;2023-04-03T05:29:52;6.30;;;4.70;;
10641;SDS011;5369;49.586;8.646;2023-04-03T05:32:21;6.60;;;4.63;;
10641;SDS011;5369;49.586;8.646;2023-04-03T05:34:52;6.23;;;4.80;;
10641;SDS011;5369;49.586;8.646;2023-04-03T05:37:18;5.60;;;4.57;;
10641;SDS011;5369;49.586;8.646;2023-04-03T05:39:45;5.53;;;4.27;;
10641;SDS011;5369;49.586;8.646;2023-04-03T05:42:12;5.93;;;4.37;;
10641;SDS011;5369;49.586;8.646;2023-04-03T05:44:39;5.13;;;4.43;;
10641;SDS011;5369;49.586;8.646;2023-04-03T05:47:06;6.67;;;4.17;;
10641;SDS011;5369;49.586;8.646;2023-04-03T05:49:32;5.73;;;4.30;;
10641;SDS011;5369;49.586;8.646;2023-04-03T05:51:58;6.57;;;5.10;;
10641;SDS011;5369;49.586;8.646;2023-04-03T05:54:28;5.97;;;4.57;;
10641;SDS011;5369;49.586;8.646;2023-04-03T05:57:04;5.10;;;4.60;;
10641;SDS011;5369;49.586;8.646;2023-04-03T05:59:30;6.00;;;5.00;;
10641;SDS011;5369;49.586;8.646;2023-04-03T06:01:59;7.07;;;5.27;;
10641;SDS011;5369;49.586;8.646;2023-04-03T06:04:26;5.53;;;4.53;;
10641;SDS011;5369;49.586;8.646;2023-04-03T06:06:54;10.17;;;6.23;;
10641;SDS011;5369;49.586;8.646;2023-04-03T06:09:21;8.60;;;5.77;;
10641;SDS011;5369;49.586;8.646;2023-04-03T06:11:47;7.03;;;5.40;;
10641;SDS011;5369;49.586;8.646;2023-04-03T06:14:15;7.43;;;5.33;;
10641;SDS011;5369;49.586;8.646;2023-04-03T06:16:41;10.13;;;6.40;;
10641;SDS011;5369;49.586;8.646;2023-04-03T06:19:07;9.97;;;6.30;;
10641;SDS011;5369;49.586;8.646;2023-04-03T06:21:37;9.67;;;6.30;;
10641;SDS011;5369;49.586;8.646;2023-04-03T06:24:03;8.17;;;5.97;;
10641;SDS011;5369;49.586;8.646;2023-04-03T06:26:31;8.13;;;4.80;;
10641;SDS011;5369;49.586;8.646;2023-04-03T06:28:58;5.63;;;3.87;;
10641;SDS011;5369;49.586;8.646;2023-04-03T06:31:24;5.70;;;3.70;;
10641;SDS011;5369;49.586;8.646;2023-04-03T06:33:51;4.73;;;3.53;;
10641;SDS011;5369;49.586;8.646;2023-04-03T06:36:18;6.47;;;3.70;;
10641;SDS011;5369;49.586;8.646;2023-04-03T06:38:47;7.53;;;3.40;;
10641;SDS011;5369;49.586;8.646;2023-04-03T06:41:14;5.67;;;3.60;;
10641;SDS011;5369;49.586;8.646;2023-04-03T06:43:41;5.33;;;3.67;;
10641;SDS011;5369;49.586;8.646;2023-04-03T06:46:12;5.60;;;3.70;;
10641;SDS011;5369;49.586;8.646;2023-04-03T06:48:38;5.53;;;3.40;;
10641;SDS011;5369;49.586;8.646;2023-04-03T06:51:04;4.33;;;3.30;;
10641;SDS011;5369;49.586;8.646;2023-04-03T06:53:31;5.33;;;3.50;;
10641;SDS011;5369;49.586;8.646;2023-04-03T06:55:57;4.47;;;3.60;;
10641;SDS011;5369;49.586;8.646;2023-04-03T06:58:24;5.97;;;3.40;;
10641;SDS011;5369;49.586;8.646;2023-04-03T07:00:50;5.83;;;3.57;;
10641;SDS011;5369;49.586;8.646;2023-04-03T07:03:16;6.67;;;3.47;;
10641;SDS011;5369;49.586;8.646;2023-04-03T07:05:43;4.50;;;3.03;;
10641;SDS011;5369;49.586;8.646;2023-04-03T07:08:10;4.70;;;3.43;;
10641;SDS011;5369;49.586;8.646;2023-04-03T07:10:37;4.40;;;3.20;;
10641;SDS011;5369;49.586;8.646;2023-04-03T07:13:03;7.00;;;3.73;;
10641;SDS011;5369;49.586;8.646;2023-04-03T07:15:29;8.80;;;3.30;;
10641;SDS011;5369;49.586;8.646;2023-04-03T07:17:55;5.03;;;3.17;;
10641;SDS011;5369;49.586;8.646;2023-04-03T07:20:21;4.53;;;2.80;;
10641;SDS011;5369;49.586;8.646;2023-04-03T07:22:48;3.90;;;2.83;;
10641;SDS011;5369;49.586;8.646;2023-04-03T07:25:14;5.50;;;3.27;;
10641;SDS011;5369;49.586;8.646;2023-04-03T07:27:41;4.17;;;2.87;;
10641;SDS011;5369;49.586;8.646;2023-04-03T07:30:07;5.37;;;2.97;;
10641;SDS011;5369;49.586;8.646;2023-04-03T07:32:34;5.03;;;3.30;;
10641;SDS011;5369;49.586;8.646;2023-04-03T07:35:00;4.57;;;2.97;;
10641;SDS011;5369;49.586;8.646;2023-04-03T07:37:27;5.73;;;3.20;;
10641;SDS011;5369;49.586;8.646;2023-04-03T07:39:53;5.43;;;3.40;;
10641;SDS011;5369;49.586;8.646;2023-04-03T07:42:20;6.83;;;4.40;;
10641;SDS011;5369;49.586;8.646;2023-04-03T07:44:46;5.27;;;3.40;;
10641;SDS011;5369;49.586;8.646;2023-04-03T07:47:12;5.27;;;3.03;;
10641;SDS011;5369;49.586;8.646;2023-04-03T07:49:41;5.17;;;2.80;;
10641;SDS011;5369;49.586;8.646;2023-04-03T07:52:09;4.93;;;3.00;;
10641;SDS011;5369;49.586;8.646;2023-04-03T07:54:35;8.40;;;3.23;;
10641;SDS011;5369;49.586;8.646;2023-04-03T07:57:01;7.33;;;3.10;;
10641;SDS011;5369;49.586;8.646;2023-04-03T07:59:28;7.23;;;3.77;;
10641;SDS011;5369;49.586;8.646;2023-04-03T08:01:54;4.80;;;3.37;;
10641;SDS011;5369;49.586;8.646;2023-04-03T08:04:21;7.50;;;3.40;;
10641;SDS011;5369;49.586;8.646;2023-04-03T08:06:52;5.03;;;2.57;;
10641;SDS011;5369;49.586;8.646;2023-04-03T08:09:18;3.67;;;2.20;;
10641;SDS011;5369;49.586;8.646;2023-04-03T08:11:45;3.87;;;1.90;;
10641;SDS011;5369;49.586;8.646;2023-04-03T08:14:11;4.60;;;2.13;;
10641;SDS011;5369;49.586;8.646;2023-04-03T08:16:43;5.63;;;2.27;;
10641;SDS011;5369;49.586;8.646;2023-04-03T08:19:10;4.43;;;2.00;;
10641;SDS011;5369;49.586;8.646;2023-04-03T08:21:39;6.40;;;4.07;;
10641;SDS011;5369;49.586;8.646;2023-04-03T08:24:06;3.53;;;2.10;;
10641;SDS011;5369;49.586;8.646;2023-04-03T08:26:33;2.57;;;1.97;;
10641;SDS011;5369;49.586;8.646;2023-04-03T08:29:00;4.20;;;2.07;;
10641;SDS011;5369;49.586;8.646;2023-04-03T08:31:26;4.90;;;1.83;;
10641;SDS011;5369;49.586;8.646;2023-04-03T08:33:52;3.53;;;1.90;;
10641;SDS011;5369;49.586;8.646;2023-04-03T08:38:45;4.50;;;2.17;;
10641;SDS011;5369;49.586;8.646;2023-04-03T08:47:01;4.70;;;1.87;;
10641;SDS011;5369;49.586;8.646;2023-04-03T08:51:54;3.13;;;1.83;;
10641;SDS011;5369;49.586;8.646;2023-04-03T08:54:24;2.20;;;1.70;;
10641;SDS011;5369;49.586;8.646;2023-04-03T08:56:51;3.60;;;1.90;;
10641;SDS011;5369;49.586;8.646;2023-04-03T08:59:19;3.50;;;1.80;;
10641;SDS011;5369;49.586;8.646;2023-04-03T09:01:50;4.40;;;1.90;;
10641;SDS011;5369;49.586;8.646;2023-04-03T09:04:16;3.83;;;2.30;;
10641;SDS011;5369;49.586;8.646;2023-04-03T09:06:45;5.43;;;1.80;;
10641;SDS011;5369;49.586;8.646;2023-04-03T09:09:18;3.10;;;1.73;;
10641;SDS011;5369;49.586;8.646;2023-04-03T09:14:31;4.57;;;2.10;;
10641;SDS011;5369;49.586;8.646;2023-04-03T09:17:00;3.80;;;1.90;;
10641;SDS011;5369;49.586;8.646;2023-04-03T09:22:16;4.57;;;1.77;;
10641;SDS011;5369;49.586;8.646;2023-04-03T09:24:47;3.57;;;1.60;;
10641;SDS011;5369;49.586;8.646;2023-04-03T09:27:14;4.07;;;1.80;;
10641;SDS011;5369;49.586;8.646;2023-04-03T09:29:41;7.20;;;2.07;;
10641;SDS011;5369;49.586;8.646;2023-04-03T09:34:56;2.20;;;1.40;;
10641;SDS011;5369;49.586;8.646;2023-04-03T09:37:33;4.10;;;1.93;;
10641;SDS011;5369;49.586;8.646;2023-04-03T09:40:01;3.07;;;1.70;;
10641;SDS011;5369;49.586;8.646;2023-04-03T09:42:29;2.83;;;1.40;;
10641;SDS011;5369;49.586;8.646;2023-04-03T09:45:00;1.80;;;1.43;;
10641;SDS011;5369;49.586;8.646;2023-04-03T09:47:27;3.13;;;1.60;;
10641;SDS011;5369;49.586;8.646;2023-04-03T09:52:39;2.40;;;1.50;;
10641;SDS011;5369;49.586;8.646;2023-04-03T09:58:02;3.67;;;1.40;;
10641;SDS011;5369;49.586;8.646;2023-04-03T10:00:38;2.50;;;1.20;;
10641;SDS011;5369;49.586;8.646;2023-04-03T10:03:08;2.30;;;1.40;;
10641;SDS011;5369;49.586;8.646;2023-04-03T10:05:49;2.67;;;1.30;;
10641;SDS011;5369;49.586;8.646;2023-04-03T10:08:24;1.83;;;1.27;;
10641;SDS011;5369;49.586;8.646;2023-04-03T10:13:36;2.70;;;1.50;;
10641;SDS011;5369;49.586;8.646;2023-04-03T10:16:15;2.40;;;1.57;;
10641;SDS011;5369;49.586;8.646;2023-04-03T10:19:03;3.37;;;1.50;;
10641;SDS011;5369;49.586;8.646;2023-04-03T10:21:48;3.00;;;1.30;;
10641;SDS011;5369;49.586;8.646;2023-04-03T10:34:35;5.10;;;1.70;;
10641;SDS011;5369;49.586;8.646;2023-04-03T10:47:20;4.67;;;1.70;;
10641;SDS011;5369;49.586;8.646;2023-04-03T10:50:06;3.20;;;1.50;;
10641;SDS011;5369;49.586;8.646;2023-04-03T10:53:20;1.93;;;1.33;;
10641;SDS011;5369;49.586;8.646;2023-04-03T10:55:35;3.00;;;1.70;;
10641;SDS011;5369;49.586;8.646;2023-04-03T10:58:03;2.60;;;1.50;;
10641;SDS011;5369;49.586;8.646;2023-04-03T11:00:42;3.90;;;1.70;;
10641;SDS011;5369;49.586;8.646;2023-04-03T11:03:13;3.10;;;1.80;;
10641;SDS011;5369;49.586;8.646;2023-04-03T11:05:42;2.53;;;1.40;;
10641;SDS011;5369;49.586;8.646;2023-04-03T11:08:24;2.00;;;1.40;;
10641;SDS011;5369;49.586;8.646;2023-04-03T11:10:51;1.93;;;1.50;;
10641;SDS011;5369;49.586;8.646;2023-04-03T11:15:51;2.40;;;1.67;;
10641;SDS011;5369;49.586;8.646;2023-04-03T11:18:19;2.13;;;1.53;;
10641;SDS011;5369;49.586;8.646;2023-04-03T11:20:50;3.47;;;1.57;;
10641;SDS011;5369;49.586;8.646;2023-04-03T11:23:21;2.37;;;1.70;;
10641;SDS011;5369;49.586;8.646;2023-04-03T11:25:50;4.73;;;1.80;;
10641;SDS011;5369;49.586;8.646;2023-04-03T11:28:17;3.07;;;1.60;;
10641;SDS011;5369;49.586;8.646;2023-04-03T11:30:52;3.27;;;1.60;;
10641;SDS011;5369;49.586;8.646;2023-04-03T11:35:55;3.13;;;1.70;;
10641;SDS011;5369;49.586;8.646;2023-04-03T11:38:25;3.00;;;1.53;;
10641;SDS011;5369;49.586;8.646;2023-04-03T11:40:54;3.23;;;1.97;;
10641;SDS011;5369;49.586;8.646;2023-04-03T11:50:53;3.60;;;1.83;;
10641;SDS011;5369;49.586;8.646;2023-04-03T11:53:33;4.53;;;1.93;;
10641;SDS011;5369;49.586;8.646;2023-04-03T11:56:01;4.33;;;2.00;;
10641;SDS011;5369;49.586;8.646;2023-04-03T11:58:28;3.33;;;2.00;;
10641;SDS011;5369;49.586;8.646;2023-04-03T12:01:11;4.73;;;2.40;;
10641;SDS011;5369;49.586;8.646;2023-04-03T12:13:35;3.47;;;1.90;;
10641;SDS011;5369;49.586;8.646;2023-04-03T12:16:02;2.90;;;2.00;;
10641;SDS011;5369;49.586;8.646;2023-04-03T12:21:13;2.03;;;1.70;;
10641;SDS011;5369;49.586;8.646;2023-04-03T12:26:32;3.23;;;2.40;;
10641;SDS011;5369;49.586;8.646;2023-04-03T12:29:02;3.27;;;1.83;;
10641;SDS011;5369;49.586;8.646;2023-04-03T12:31:37;2.73;;;1.80;;
10641;SDS011;5369;49.586;8.646;2023-04-03T12:34:18;3.77;;;1.63;;
10641;SDS011;5369;49.586;8.646;2023-04-03T12:36:54;4.67;;;1.87;;
10641;SDS011;5369;49.586;8.646;2023-04-03T12:42:09;3.03;;;1.90;;
10641;SDS011;5369;49.586;8.646;2023-04-03T12:44:40;5.27;;;2.07;;
10641;SDS011;5369;49.586;8.646;2023-04-03T12:47:22;3.57;;;2.00;;
10641;SDS011;5369;49.586;8.646;2023-04-03T12:49:50;3.57;;;1.90;;
10641;SDS011;5369;49.586;8.646;2023-04-03T12:52:22;2.93;;;1.70;;
10641;SDS011;5369;49.586;8.646;2023-04-03T12:54:51;3.53;;;1.80;;
10641;SDS011;5369;49.586;8.646;2023-04-03T12:57:20;3.07;;;2.00;;
10641;SDS011;5369;49.586;8.646;2023-04-03T12:59:47;5.60;;;1.90;;
10641;SDS011;5369;49.586;8.646;2023-04-03T13:02:23;2.87;;;1.80;;
10641;SDS011;5369;49.586;8.646;2023-04-03T13:04:50;5.87;;;1.93;;
10641;SDS011;5369;49.586;8.646;2023-04-03T13:07:35;3.30;;;2.30;;
10641;SDS011;5369;49.586;8.646;2023-04-03T13:12:45;3.70;;;2.17;;
10641;SDS011;5369;49.586;8.646;2023-04-03T13:15:13;3.20;;;1.80;;
10641;SDS011;5369;49.586;8.646;2023-04-03T13:17:41;3.00;;;1.80;;
10641;SDS011;5369;49.586;8.646;2023-04-03T13:20:14;3.27;;;1.90;;
10641;SDS011;5369;49.586;8.646;2023-04-03T13:22:50;3.20;;;1.70;;
10641;SDS011;5369;49.586;8.646;2023-04-03T13:25:18;3.23;;;1.77;;
10641;SDS011;5369;49.586;8.646;2023-04-03T13:27:45;2.13;;;1.70;;
10641;SDS011;5369;49.586;8.646;2023-04-03T13:30:53;3.00;;;1.97;;
10641;SDS011;5369;49.586;8.646;2023-04-03T13:33:04;2.27;;;1.83;;
10641;SDS011;5369;49.586;8.646;2023-04-03T13:38:00;3.00;;;1.87;;
10641;SDS011;5369;49.586;8.646;2023-04-03T13:40:26;3.17;;;1.87;;
10641;SDS011;5369;49.586;8.646;2023-04-03T13:43:03;2.37;;;1.70;;
10641;SDS011;5369;49.586;8.646;2023-04-03T13:45:31;3.50;;;2.10;;
10641;SDS011;5369;49.586;8.646;2023-04-03T13:48:14;2.77;;;1.73;;
10641;SDS011;5369;49.586;8.646;2023-04-03T13:50:59;2.17;;;1.67;;
10641;SDS011;5369;49.586;8.646;2023-04-03T13:53:27;2.50;;;1.83;;
10641;SDS011;5369;49.586;8.646;2023-04-03T13:58:25;2.30;;;1.70;;
10641;SDS011;5369;49.586;8.646;2023-04-03T14:00:53;3.07;;;1.80;;
10641;SDS011;5369;49.586;8.646;2023-04-03T14:03:30;2.10;;;1.50;;
10641;SDS011;5369;49.586;8.646;2023-04-03T14:05:57;3.73;;;1.60;;
10641;SDS011;5369;49.586;8.646;2023-04-03T14:08:29;1.93;;;1.60;;
10641;SDS011;5369;49.586;8.646;2023-04-03T14:10:56;6.90;;;2.00;;
10641;SDS011;5369;49.586;8.646;2023-04-03T14:13:22;2.60;;;1.80;;
10641;SDS011;5369;49.586;8.646;2023-04-03T14:15:48;1.93;;;1.60;;
10641;SDS011;5369;49.586;8.646;2023-04-03T14:18:18;2.23;;;1.80;;
10641;SDS011;5369;49.586;8.646;2023-04-03T14:20:47;3.40;;;1.70;;
10641;SDS011;5369;49.586;8.646;2023-04-03T14:23:14;2.43;;;1.67;;
10641;SDS011;5369;49.586;8.646;2023-04-03T14:25:40;3.20;;;1.80;;
10641;SDS011;5369;49.586;8.646;2023-04-03T14:28:13;3.23;;;1.90;;
10641;SDS011;5369;49.586;8.646;2023-04-03T14:30:40;2.70;;;1.97;;
10641;SDS011;5369;49.586;8.646;2023-04-03T14:33:06;3.17;;;1.70;;
10641;SDS011;5369;49.586;8.646;2023-04-03T14:35:32;3.37;;;1.70;;
10641;SDS011;5369;49.586;8.646;2023-04-03T14:37:58;2.07;;;1.43;;
10641;SDS011;5369;49.586;8.646;2023-04-03T14:40:25;1.87;;;1.50;;
10641;SDS011;5369;49.586;8.646;2023-04-03T14:42:56;3.47;;;1.90;;
10641;SDS011;5369;49.586;8.646;2023-04-03T14:45:23;2.27;;;1.37;;
10641;SDS011;5369;49.586;8.646;2023-04-03T14:47:51;2.73;;;1.70;;
10641;SDS011;5369;49.586;8.646;2023-04-03T14:50:18;2.10;;;1.50;;
10641;SDS011;5369;49.586;8.646;2023-04-03T14:52:49;3.53;;;1.70;;
10641;SDS011;5369;49.586;8.646;2023-04-03T14:55:17;1.77;;;1.43;;
10641;SDS011;5369;49.586;8.646;2023-04-03T14:57:43;1.83;;;1.50;;
10641;SDS011;5369;49.586;8.646;2023-04-03T15:00:12;2.60;;;1.63;;
10641;SDS011;5369;49.586;8.646;2023-04-03T15:02:39;2.30;;;1.43;;
10641;SDS011;5369;49.586;8.646;2023-04-03T15:05:06;2.23;;;1.60;;
10641;SDS011;5369;49.586;8.646;2023-04-03T15:07:34;2.00;;;1.50;;
10641;SDS011;5369;49.586;8.646;2023-04-03T15:10:02;2.57;;;1.77;;
10641;SDS011;5369;49.586;8.646;2023-04-03T15:12:29;2.10;;;1.50;;
10641;SDS011;5369;49.586;8.646;2023-04-03T15:14:55;2.73;;;1.40;;
10641;SDS011;5369;49.586;8.646;2023-04-03T15:17:22;2.30;;;1.60;;
10641;SDS011;5369;49.586;8.646;2023-04-03T15:19:48;1.67;;;1.43;;
10641;SDS011;5369;49.586;8.646;2023-04-03T15:22:16;3.60;;;1.70;;
10641;SDS011;5369;49.586;8.646;2023-04-03T15:24:42;2.63;;;1.67;;
10641;SDS011;5369;49.586;8.646;2023-04-03T15:27:08;3.00;;;1.70;;
10641;SDS011;5369;49.586;8.646;2023-04-03T15:29:35;2.40;;;1.67;;
10641;SDS011;5369;49.586;8.646;2023-04-03T15:32:01;3.70;;;1.60;;
10641;SDS011;5369;49.586;8.646;2023-04-03T15:34:28;2.83;;;1.70;;
10641;SDS011;5369;49.586;8.646;2023-04-03T15:36:54;3.30;;;1.57;;
10641;SDS011;5369;49.586;8.646;2023-04-03T15:39:20;4.40;;;1.70;;
10641;SDS011;5369;49.586;8.646;2023-04-03T15:41:48;1.83;;;1.40;;
10641;SDS011;5369;49.586;8.646;2023-04-03T15:44:14;1.80;;;1.43;;
10641;SDS011;5369;49.586;8.646;2023-04-03T15:46:43;1.70;;;1.50;;
10641;SDS011;5369;49.586;8.646;2023-04-03T15:49:09;3.60;;;1.80;;
10641;SDS011;5369;49.586;8.646;2023-04-03T15:51:35;2.47;;;1.50;;
10641;SDS011;5369;49.586;8.646;2023-04-03T15:54:01;1.67;;;1.57;;
10641;SDS011;5369;49.586;8.646;2023-04-03T15:56:28;3.17;;;1.73;;
10641;SDS011;5369;49.586;8.646;2023-04-03T15:58:54;2.63;;;1.60;;
10641;SDS011;5369;49.586;8.646;2023-04-03T16:01:20;2.10;;;1.47;;
10641;SDS011;5369;49.586;8.646;2023-04-03T16:03:46;2.60;;;1.63;;
10641;SDS011;5369;49.586;8.646;2023-04-03T16:06:13;2.80;;;1.37;;
10641;SDS011;5369;49.586;8.646;2023-04-03T16:08:40;1.83;;;1.50;;
10641;SDS011;5369;49.586;8.646;2023-04-03T16:11:06;2.23;;;1.40;;
10641;SDS011;5369;49.586;8.646;2023-04-03T16:13:32;3.37;;;1.60;;
10641;SDS011;5369;49.586;8.646;2023-04-03T16:15:59;2.97;;;1.30;;
10641;SDS011;5369;49.586;8.646;2023-04-03T16:18:26;2.57;;;1.50;;
10641;SDS011;5369;49.586;8.646;2023-04-03T16:20:53;2.80;;;1.80;;
10641;SDS011;5369;49.586;8.646;2023-04-03T16:23:19;3.10;;;1.80;;
10641;SDS011;5369;49.586;8.646;2023-04-03T16:25:46;3.63;;;1.50;;
10641;SDS011;5369;49.586;8.646;2023-04-03T16:28:12;1.73;;;1.50;;
10641;SDS011;5369;49.586;8.646;2023-04-03T16:30:42;2.43;;;1.77;;
10641;SDS011;5369;49.586;8.646;2023-04-03T16:33:09;3.27;;;1.67;;
10641;SDS011;5369;49.586;8.646;2023-04-03T16:35:41;2.90;;;1.97;;
10641;SDS011;5369;49.586;8.646;2023-04-03T16:38:08;2.20;;;1.50;;
10641;SDS011;5369;49.586;8.646;2023-04-03T16:40:34;2.53;;;1.53;;